Time;durP1;ratioP1;P1;durP2;ratioP2;P2;SDS_P1;SDS_P2;PMS_P1;PMS_P2;Temp;Humidity;BMP_temperature;BMP_pressure;BME280_temperature;BME280_humidity;BME280_pressure;Samples;Min_cycle;Max_cycle;Signal;HPM_P1;HPM_P2
2021/10/03 00:01:58;;;;;;;4.40;2.20;;;;;;;16.11;100.00;99188.41;4930070;29;20105;-86
2021/10/03 00:04:26;;;;;;;5.10;1.98;;;;;;;16.06;100.00;99196.44;4947768;28;20040;-88
2021/10/03 00:06:53;;;;;;;4.45;2.72;;;;;;;16.02;100.00;99183.41;4948870;28;20077;-86
2021/10/03 00:09:21;;;;;;;5.43;2.20;;;;;;;16.01;100.00;99200.66;4940194;28;20457;-84
2021/10/03 00:11:47;;;;;;;5.85;2.50;;;;;;;15.97;100.00;99183.28;4947333;28;20046;-85
2021/10/03 00:14:13;;;;;;;4.22;2.28;;;;;;;15.92;100.00;99194.00;4943069;28;20092;-86
2021/10/03 00:16:39;;;;;;;4.03;2.60;;;;;;;15.88;100.00;99190.13;4936156;28;20113;-88
2021/10/03 00:19:05;;;;;;;3.97;2.20;;;;;;;15.88;100.00;99179.31;4934811;28;20055;-85
2021/10/03 00:21:31;;;;;;;3.55;2.40;;;;;;;15.85;100.00;99182.47;4954929;28;20533;-86
2021/10/03 00:23:56;;;;;;;5.40;2.50;;;;;;;15.83;100.00;99181.91;4942876;28;20085;-85
2021/10/03 00:26:22;;;;;;;4.72;2.65;;;;;;;15.85;100.00;99187.06;4931486;28;20599;-85
2021/10/03 00:28:47;;;;;;;7.32;2.88;;;;;;;15.84;100.00;99185.41;4939080;28;20051;-88
2021/10/03 00:31:13;;;;;;;4.93;2.85;;;;;;;15.82;100.00;99185.63;4938926;28;20142;-86
2021/10/03 00:33:39;;;;;;;6.45;3.38;;;;;;;15.83;100.00;99184.59;4947448;28;20048;-86
2021/10/03 00:36:04;;;;;;;5.82;3.17;;;;;;;15.81;100.00;99186.72;4936032;28;20052;-86
2021/10/03 00:38:29;;;;;;;5.55;3.25;;;;;;;15.83;100.00;99184.59;4937431;28;20058;-87
2021/10/03 00:40:55;;;;;;;7.13;3.20;;;;;;;15.84;100.00;99183.53;4926661;29;20126;-88
2021/10/03 00:43:21;;;;;;;7.88;3.10;;;;;;;15.84;100.00;99180.81;4934536;28;20254;-88
2021/10/03 00:45:46;;;;;;;7.22;3.67;;;;;;;15.87;100.00;99184.94;4930325;28;20106;-87
2021/10/03 00:48:12;;;;;;;6.53;3.35;;;;;;;15.88;100.00;99183.88;4927768;28;20051;-86
2021/10/03 00:50:40;;;;;;;8.05;3.30;;;;;;;15.90;100.00;99187.16;4924492;28;20124;-87
2021/10/03 00:53:06;;;;;;;5.32;3.28;;;;;;;15.91;100.00;99192.34;4935858;28;20055;-87
2021/10/03 00:55:33;;;;;;;5.85;3.72;;;;;;;15.91;100.00;99186.94;4930920;28;20055;-87
2021/10/03 00:57:59;;;;;;;5.63;3.30;;;;;;;15.91;100.00;99191.50;4934198;28;20062;-88
2021/10/03 01:00:29;;;;;;;7.07;3.67;;;;;;;15.91;100.00;99186.94;4927895;28;20075;-86
2021/10/03 01:02:55;;;;;;;;;;;;;;;15.91;100.00;99180.69;4936368;28;20058;-86
2021/10/03 01:05:21;;;;;;;6.85;3.00;;;;;;;15.86;100.00;99180.59;4933107;28;19919;-90
2021/10/03 01:07:47;;;;;;;5.32;2.85;;;;;;;15.87;100.00;99185.75;4936160;28;20051;-87
2021/10/03 01:10:19;;;;;;;6.15;3.50;;;;;;;15.92;100.00;99185.88;4933652;28;20047;-87
2021/10/03 01:12:45;;;;;;;5.22;2.80;;;;;;;15.94;100.00;99172.94;4906961;29;20394;-88
2021/10/03 01:15:12;;;;;;;5.57;3.00;;;;;;;15.97;100.00;99174.34;4936675;28;20502;-89
2021/10/03 01:17:37;;;;;;;6.50;3.05;;;;;;;15.99;100.00;99178.44;4944281;28;20066;-88
2021/10/03 01:20:05;;;;;;;5.03;3.05;;;;;;;16.04;100.00;99176.91;4929126;28;20414;-89
2021/10/03 01:22:30;;;;;;;3.92;2.47;;;;;;;16.05;100.00;99186.66;4934505;28;20055;-87
2021/10/03 01:24:58;;;;;;;4.78;2.85;;;;;;;16.09;100.00;99182.44;4931847;28;20413;-88
2021/10/03 01:27:25;;;;;;;6.43;3.15;;;;;;;16.08;100.00;99176.19;4934997;28;20051;-91
2021/10/03 01:29:50;;;;;;;5.18;2.70;;;;;;;16.10;100.00;99184.06;4935627;28;20047;-88
2021/10/03 01:32:19;;;;;;;4.78;2.88;;;;;;;16.09;100.00;99187.84;4915438;28;20117;-89
2021/10/03 01:34:45;;;;;;;6.90;2.53;;;;;;;16.11;100.00;99183.00;4939452;28;20047;-89
2021/10/03 01:37:12;;;;;;;4.63;2.80;;;;;;;16.10;100.00;99178.66;4936508;28;20410;-87
2021/10/03 01:39:39;;;;;;;6.53;3.05;;;;;;;16.09;100.00;99175.13;4933583;28;20063;-88
2021/10/03 01:42:05;;;;;;;5.45;2.67;;;;;;;16.10;100.00;99171.34;4943765;28;20502;-88
2021/10/03 01:44:31;;;;;;;5.50;2.70;;;;;;;16.12;100.00;99165.72;4944042;28;20418;-89
2021/10/03 01:46:56;;;;;;;4.65;3.08;;;;;;;16.12;100.00;99174.66;4945339;28;20048;-86
2021/10/03 01:49:21;;;;;;;4.63;2.53;;;;;;;16.14;100.00;99164.41;4940875;28;20058;-88
2021/10/03 01:51:47;;;;;;;4.53;2.40;;;;;;;16.17;100.00;99172.06;4941697;28;20055;-88
2021/10/03 01:54:12;;;;;;;5.97;2.80;;;;;;;16.16;100.00;99173.09;4941324;28;20429;-87
2021/10/03 01:56:40;;;;;;;5.30;2.80;;;;;;;16.15;100.00;99181.47;4942443;28;20047;-85
2021/10/03 01:59:06;;;;;;;4.03;2.58;;;;;;;16.15;100.00;99162.53;4945945;28;20113;-85
2021/10/03 02:01:44;;;;;;;5.10;2.78;;;;;;;16.15;100.00;99165.22;4944480;28;20054;-84
2021/10/03 02:04:25;;;;;;;5.28;2.70;;;;;;;16.12;100.00;99168.44;4941309;28;20047;-86
2021/10/03 02:06:52;;;;;;;5.80;2.47;;;;;;;16.10;100.00;99148.88;4943008;28;20055;-85
2021/10/03 02:09:19;;;;;;;3.70;2.30;;;;;;;16.09;100.00;99167.00;4943555;28;20113;-87
2021/10/03 02:11:48;;;;;;;5.05;2.42;;;;;;;16.09;100.00;99161.59;4941218;28;20061;-86
2021/10/03 02:14:15;;;;;;;3.67;2.30;;;;;;;16.09;100.00;99161.59;4940650;28;20270;-87
2021/10/03 02:16:41;;;;;;;4.20;1.90;;;;;;;16.09;100.00;99160.78;4932889;28;20115;-86
2021/10/03 02:19:07;;;;;;;3.70;1.92;;;;;;;16.10;100.00;99157.81;4941225;28;20110;-85
2021/10/03 02:21:34;;;;;;;3.63;1.48;;;;;;;16.13;100.00;99161.94;4941219;28;20059;-86
2021/10/03 02:24:00;;;;;;;3.47;1.70;;;;;;;16.14;100.00;99161.72;4943714;28;20047;-86
2021/10/03 02:26:26;;;;;;;2.17;1.60;;;;;;;16.15;100.00;99154.41;4942592;28;20069;-86
2021/10/03 02:28:51;;;;;;;4.63;1.83;;;;;;;16.16;100.00;99150.63;4940651;28;20047;-87
2021/10/03 02:31:17;;;;;;;2.60;1.55;;;;;;;16.19;100.00;99139.31;4935042;28;20393;-87
2021/10/03 02:33:47;;;;;;;3.85;1.80;;;;;;;16.17;100.00;99142.28;4932978;28;20348;-86
2021/10/03 02:36:14;;;;;;;3.20;1.60;;;;;;;16.18;100.00;99143.09;4931310;28;20054;-86
2021/10/03 02:38:40;;;;;;;3.20;1.92;;;;;;;16.16;100.00;99137.91;4940581;28;20304;-86
2021/10/03 02:41:08;;;;;;;2.95;1.67;;;;;;;16.16;100.00;99139.81;4936847;28;20115;-84
2021/10/03 02:43:35;;;;;;;3.75;1.60;;;;;;;16.16;100.00;99137.91;4948633;28;20043;-85
2021/10/03 02:46:03;;;;;;;3.45;2.05;;;;;;;16.16;100.00;99132.50;4944563;28;20043;-87
2021/10/03 02:48:30;;;;;;;4.28;1.90;;;;;;;16.15;100.00;99132.75;4949887;28;20142;-86
2021/10/03 02:50:56;;;;;;;3.00;1.38;;;;;;;16.15;100.00;99130.88;4945592;28;20058;-86
2021/10/03 02:53:23;;;;;;;4.03;1.80;;;;;;;16.14;100.00;99123.84;4945744;28;20051;-85
2021/10/03 02:55:48;;;;;;;4.13;1.75;;;;;;;16.16;100.00;99123.56;4930944;28;20058;-86
2021/10/03 02:58:14;;;;;;;2.90;1.70;;;;;;;16.15;100.00;99127.34;4918820;28;20052;-88
2021/10/03 03:00:42;;;;;;;3.75;1.70;;;;;;;16.14;100.00;99123.84;4947394;28;20557;-86
2021/10/03 03:03:07;;;;;;;4.80;2.40;;;;;;;16.15;100.00;99122.75;4944918;28;20071;-85
2021/10/03 03:05:33;;;;;;;3.85;1.98;;;;;;;16.14;100.00;99104.88;4917062;29;20465;-86
2021/10/03 03:07:59;;;;;;;4.88;2.58;;;;;;;16.12;100.00;99107.00;4953556;28;20124;-85
2021/10/03 03:10:24;;;;;;;5.63;2.45;;;;;;;16.12;100.00;99098.06;4953951;28;20059;-86
2021/10/03 03:12:49;;;;;;;6.68;2.92;;;;;;;16.12;100.00;99111.59;4953279;28;20545;-86
2021/10/03 03:15:15;;;;;;;5.53;3.20;;;;;;;16.09;100.00;99101.25;4949609;28;20532;-85
2021/10/03 03:17:40;;;;;;;5.03;2.70;;;;;;;16.08;100.00;99113.94;4970008;28;20066;-85
2021/10/03 03:20:09;;;;;;;6.68;2.90;;;;;;;16.06;100.00;99101.75;4969022;28;20481;-86
2021/10/03 03:22:35;;;;;;;4.82;2.85;;;;;;;16.06;100.00;99109.88;4966596;28;20054;-85
2021/10/03 03:25:02;;;;;;;3.85;2.30;;;;;;;16.04;100.00;99098.44;4963217;28;20332;-86
2021/10/03 03:27:27;;;;;;;5.93;2.63;;;;;;;16.04;100.00;99103.88;4941680;28;20098;-85
2021/10/03 03:29:53;;;;;;;3.45;2.20;;;;;;;16.02;100.00;99096.81;4954459;28;20055;-87
2021/10/03 03:32:18;;;;;;;5.05;2.25;;;;;;;16.04;100.00;99101.97;4952406;28;20141;-85
2021/10/03 03:34:44;;;;;;;4.10;2.40;;;;;;;16.05;100.00;99110.91;4942211;28;20054;-86
2021/10/03 03:37:09;;;;;;;4.05;2.30;;;;;;;16.05;100.00;99094.66;4944156;28;20429;-86
2021/10/03 03:39:35;;;;;;;4.43;2.00;;;;;;;16.08;100.00;99096.91;4952601;28;20051;-86
2021/10/03 03:42:01;;;;;;;3.65;1.83;;;;;;;16.09;100.00;99101.25;4944105;28;20380;-86
2021/10/03 03:44:27;;;;;;;3.42;1.90;;;;;;;16.10;100.00;99098.31;4944400;28;20098;-86
2021/10/03 03:46:53;;;;;;;3.75;2.00;;;;;;;16.13;100.00;99088.88;4944721;28;20491;-87
2021/10/03 03:49:18;;;;;;;4.72;2.15;;;;;;;16.15;100.00;99089.47;4950364;28;20652;-88
2021/10/03 03:51:43;;;;;;;3.58;2.03;;;;;;;16.17;100.00;99088.16;4968797;28;20057;-87
2021/10/03 03:54:09;;;;;;;3.15;2.00;;;;;;;16.18;100.00;99084.38;4955711;28;20043;-87
2021/10/03 03:56:34;;;;;;;3.92;2.00;;;;;;;16.18;100.00;99078.16;4941607;28;20135;-88
2021/10/03 03:59:00;;;;;;;3.03;1.92;;;;;;;16.20;100.00;99076.03;4928276;28;20048;-89
2021/10/03 04:01:27;;;;;;;4.00;2.00;;;;;;;16.21;100.00;99061.44;4938407;28;20237;-89
2021/10/03 04:03:52;;;;;;;3.03;1.92;;;;;;;16.23;100.00;99081.78;4949437;28;20082;-90
2021/10/03 04:06:17;;;;;;;3.63;2.50;;;;;;;16.25;100.00;99078.81;4930619;29;20126;-88
2021/10/03 04:08:43;;;;;;;3.80;2.40;;;;;;;16.29;100.00;99090.00;4949806;28;20130;-89
2021/10/03 04:11:11;;;;;;;3.72;2.15;;;;;;;16.29;100.00;99071.88;4929478;28;20046;-88
2021/10/03 04:13:36;;;;;;;3.80;2.28;;;;;;;16.30;100.00;99073.50;4929442;29;20123;-89
2021/10/03 04:16:02;;;;;;;4.13;2.42;;;;;;;16.34;100.00;99098.19;4927928;29;20758;-89
2021/10/03 04:18:27;;;;;;;4.55;2.42;;;;;;;16.35;100.00;99078.19;4945653;28;20044;-89
2021/10/03 04:20:52;;;;;;;3.95;2.30;;;;;;;16.37;100.00;99084.16;4979326;28;20202;-89
2021/10/03 04:23:18;;;;;;;5.93;2.67;;;;;;;16.39;100.00;99095.59;4949529;28;20052;-89
2021/10/03 04:25:43;;;;;;;5.35;3.03;;;;;;;16.41;100.00;99083.44;4922212;28;20043;-89
2021/10/03 04:28:10;;;;;;;4.60;2.72;;;;;;;16.43;100.00;99088.63;4942134;28;20246;-89
2021/10/03 04:30:36;;;;;;;6.05;2.83;;;;;;;16.41;100.00;99093.47;4952457;28;20049;-89
2021/10/03 04:33:01;;;;;;;4.38;2.40;;;;;;;16.39;100.00;99096.41;4948707;28;20039;-88
2021/10/03 04:35:27;;;;;;;4.32;2.88;;;;;;;16.38;100.00;99100.19;4958653;28;20059;-86
2021/10/03 04:37:53;;;;;;;5.93;2.78;;;;;;;16.36;100.00;99093.38;4959976;28;20138;-86
2021/10/03 04:40:18;;;;;;;4.03;2.50;;;;;;;16.36;100.00;99104.19;4956185;28;20043;-87
2021/10/03 04:42:45;;;;;;;5.03;2.60;;;;;;;16.32;100.00;99095.75;4943482;28;20052;-86
2021/10/03 04:45:10;;;;;;;6.57;3.03;;;;;;;16.27;100.00;99084.81;4947173;28;20444;-86
2021/10/03 04:47:36;;;;;;;5.65;3.05;;;;;;;16.22;100.00;99085.53;4949058;28;20039;-87
2021/10/03 04:50:02;;;;;;;5.10;2.97;;;;;;;16.18;100.00;99083.56;4965562;28;20498;-88
2021/10/03 04:52:27;;;;;;;5.57;3.13;;;;;;;16.17;100.00;99090.88;4952650;28;20106;-87
2021/10/03 04:54:53;;;;;;;4.68;3.10;;;;;;;16.19;100.00;99093.31;4945170;28;20051;-87
2021/10/03 04:57:19;;;;;;;6.57;3.33;;;;;;;16.20;100.00;99081.44;4933944;28;20079;-87
2021/10/03 04:59:45;;;;;;;5.90;3.75;;;;;;;16.20;100.00;99086.88;4932986;28;20055;-86
2021/10/03 05:02:11;;;;;;;6.38;3.65;;;;;;;16.21;100.00;99092.03;4934618;28;20044;-89
2021/10/03 05:04:36;;;;;;;5.65;3.50;;;;;;;16.21;99.84;99080.38;4908592;29;20067;-87
2021/10/03 05:07:02;;;;;;;5.43;3.08;;;;;;;16.23;99.47;99086.38;4934923;28;20414;-87
2021/10/03 05:09:28;;;;;;;5.15;3.22;;;;;;;16.23;99.19;99087.19;4934849;28;20418;-87
2021/10/03 05:11:53;;;;;;;4.75;2.90;;;;;;;16.25;99.00;99089.63;4958687;28;20498;-88
2021/10/03 05:14:18;;;;;;;7.57;3.53;;;;;;;16.27;98.52;99090.22;4933551;28;20059;-89
2021/10/03 05:16:44;;;;;;;5.70;3.40;;;;;;;16.30;98.13;99075.38;4931749;28;20048;-89
2021/10/03 05:19:10;;;;;;;6.22;3.50;;;;;;;16.31;97.39;99093.25;4937736;28;20051;-89
2021/10/03 05:21:35;;;;;;;7.63;3.90;;;;;;;16.33;97.52;99086.53;4924961;29;20055;-88
2021/10/03 05:24:02;;;;;;;5.40;3.17;;;;;;;16.34;97.08;99088.22;4925348;28;20048;-89
2021/10/03 05:26:27;;;;;;;6.00;4.10;;;;;;;16.36;97.14;99090.66;4926076;29;20059;-88
2021/10/03 05:28:52;;;;;;;6.25;3.22;;;;;;;16.37;96.47;99076.03;4908569;29;20327;-88
2021/10/03 05:31:19;;;;;;;6.90;3.70;;;;;;;16.40;95.91;99092.66;4907159;29;20052;-89
2021/10/03 05:33:45;;;;;;;5.30;3.25;;;;;;;16.41;95.98;99088.03;4925582;28;20495;-88
2021/10/03 05:36:10;;;;;;;7.95;4.47;;;;;;;16.43;95.88;99091.34;4924211;29;20052;-89
2021/10/03 05:38:36;;;;;;;8.32;3.80;;;;;;;16.44;95.59;99071.31;4924451;29;20114;-88
2021/10/03 05:41:01;;;;;;;7.10;3.72;;;;;;;16.46;95.07;99069.19;4924606;29;20146;-88
2021/10/03 05:43:27;;;;;;;5.63;3.90;;;;;;;16.50;95.00;99072.22;4905198;29;20051;-88
2021/10/03 05:45:52;;;;;;;5.50;3.60;;;;;;;16.52;94.21;99078.22;4939061;28;20109;-89
2021/10/03 05:48:19;;;;;;;6.80;4.30;;;;;;;16.57;93.80;99078.28;4924283;29;20352;-88
2021/10/03 05:50:45;;;;;;;6.75;3.97;;;;;;;16.58;93.38;99064.53;4902198;29;20047;-89
2021/10/03 05:53:10;;;;;;;6.47;4.15;;;;;;;16.61;93.30;99084.88;4923985;29;20151;-88
2021/10/03 05:55:35;;;;;;;7.70;4.45;;;;;;;16.60;93.57;99080.50;4939345;28;20051;-88
2021/10/03 05:58:01;;;;;;;7.35;4.40;;;;;;;16.59;93.37;99074.28;4925548;29;20047;-88
2021/10/03 06:00:28;;;;;;;7.15;4.30;;;;;;;16.60;93.76;99072.38;4935495;28;20134;-88
2021/10/03 06:02:54;;;;;;;6.47;4.35;;;;;;;16.61;93.86;99076.75;4930086;28;20648;-89
2021/10/03 06:05:19;;;;;;;7.45;4.82;;;;;;;16.59;93.99;99076.97;4937901;28;20079;-88
2021/10/03 06:07:44;;;;;;;9.98;5.07;;;;;;;16.58;94.32;99088.06;4945487;28;20470;-87
2021/10/03 06:10:10;;;;;;;8.65;4.88;;;;;;;16.56;94.46;99085.59;4947162;28;20111;-87
2021/10/03 06:12:36;;;;;;;7.07;4.93;;;;;;;16.57;95.05;99086.41;4947817;28;20046;-87
2021/10/03 06:15:02;;;;;;;7.47;4.88;;;;;;;16.51;95.87;99074.66;4938304;28;20057;-87
2021/10/03 06:17:28;;;;;;;8.30;4.75;;;;;;;16.47;95.78;99093.28;4951040;28;20130;-88
2021/10/03 06:19:53;;;;;;;8.68;5.28;;;;;;;16.47;95.85;99087.06;4952842;28;20134;-87
2021/10/03 06:22:22;;;;;;;7.72;5.22;;;;;;;16.44;96.25;99095.69;4961908;28;20050;-86
2021/10/03 06:24:48;;;;;;;7.95;5.45;;;;;;;16.42;96.51;99098.63;4963473;28;20195;-88
2021/10/03 06:27:13;;;;;;;9.20;5.30;;;;;;;16.41;97.17;99102.41;4948038;28;20082;-88
2021/10/03 06:29:38;;;;;;;7.20;5.72;;;;;;;16.40;97.36;99100.75;4954547;28;20038;-86
2021/10/03 06:32:04;;;;;;;8.00;5.35;;;;;;;16.36;97.87;99096.88;4951248;28;20454;-87
2021/10/03 06:34:29;;;;;;;7.78;5.10;;;;;;;16.34;98.38;99107.16;4957437;28;20043;-85
2021/10/03 06:36:55;;;;;;;8.13;5.60;;;;;;;16.33;98.89;99108.19;4958659;28;20114;-86
2021/10/03 06:39:20;;;;;;;11.80;6.20;;;;;;;16.28;100.00;99110.00;4960245;28;20043;-87
2021/10/03 06:41:46;;;;;;;10.02;5.95;;;;;;;16.26;100.00;99104.03;4945298;28;20656;-85
2021/10/03 06:44:13;;;;;;;8.77;5.60;;;;;;;16.20;100.00;99111.22;4951152;28;20054;-86
2021/10/03 06:46:38;;;;;;;8.18;6.45;;;;;;;16.19;100.00;99101.44;4930431;29;20107;-85
2021/10/03 06:49:04;;;;;;;9.52;6.32;;;;;;;16.18;100.00;99100.63;4925473;28;20056;-85
2021/10/03 06:51:29;;;;;;;9.77;6.00;;;;;;;16.15;100.00;99103.00;4929658;28;20050;-86
2021/10/03 06:53:55;;;;;;;10.98;6.18;;;;;;;16.15;100.00;99108.41;4932111;28;20393;-86
2021/10/03 06:56:21;;;;;;;10.73;6.70;;;;;;;16.12;100.00;99103.47;4934349;28;20399;-86
2021/10/03 06:58:46;;;;;;;10.05;6.50;;;;;;;16.10;100.00;99102.91;4928962;29;20069;-85
2021/10/03 07:01:12;;;;;;;9.90;7.25;;;;;;;16.08;100.00;99105.81;4933342;28;20106;-85
2021/10/03 07:03:37;;;;;;;9.00;6.50;;;;;;;16.08;100.00;99122.06;4937058;28;20461;-86
2021/10/03 07:06:02;;;;;;;8.75;5.85;;;;;;;16.05;100.00;99111.72;4937920;28;20055;-86
2021/10/03 07:08:28;;;;;;;10.05;6.60;;;;;;;16.06;100.00;99113.38;4933136;28;20119;-85
2021/10/03 07:10:53;;;;;;;11.15;7.22;;;;;;;16.08;100.00;99115.84;4937407;28;20075;-85
2021/10/03 07:13:19;;;;;;;10.30;6.50;;;;;;;16.07;100.00;99111.50;4947456;28;20048;-85
2021/10/03 07:15:44;;;;;;;8.90;6.38;;;;;;;16.06;100.00;99116.09;4944751;28;20114;-84
2021/10/03 07:18:11;;;;;;;9.45;6.78;;;;;;;16.07;100.00;99119.63;4937599;28;20122;-86
2021/10/03 07:20:37;;;;;;;11.30;7.38;;;;;;;16.08;100.00;99116.66;4925997;29;20050;-85
2021/10/03 07:23:02;;;;;;;10.70;6.50;;;;;;;16.09;100.00;99122.91;4953147;28;20043;-86
2021/10/03 07:25:28;;;;;;;11.20;7.28;;;;;;;16.10;100.00;99124.53;4948636;28;20047;-86
2021/10/03 07:27:53;;;;;;;10.23;6.88;;;;;;;16.09;100.00;99123.72;4939404;28;20066;-85
2021/10/03 07:30:18;;;;;;;10.98;7.07;;;;;;;16.07;100.00;99120.44;4949631;28;20054;-86
2021/10/03 07:32:44;;;;;;;8.45;6.88;;;;;;;16.06;100.00;99116.09;4941926;28;20333;-86
2021/10/03 07:35:10;;;;;;;10.65;7.28;;;;;;;16.06;100.00;99117.97;4943035;28;20523;-85
2021/10/03 07:37:36;;;;;;;13.50;7.55;;;;;;;16.08;100.00;99130.19;4947909;28;20051;-85
2021/10/03 07:40:03;;;;;;;13.38;7.50;;;;;;;16.09;100.00;99128.31;4950662;28;20106;-86
2021/10/03 07:42:29;;;;;;;8.90;6.72;;;;;;;16.09;100.00;99128.31;4956222;28;20363;-86
2021/10/03 07:44:54;;;;;;;10.40;7.25;;;;;;;16.08;100.00;99123.94;4924167;29;20052;-85
2021/10/03 07:47:20;;;;;;;12.20;7.38;;;;;;;16.09;100.00;99122.91;4932861;28;20047;-85
2021/10/03 07:49:45;;;;;;;10.10;7.00;;;;;;;16.10;100.00;99125.34;4948746;28;20398;-85
2021/10/03 07:52:10;;;;;;;14.70;7.65;;;;;;;16.10;100.00;99128.06;4929813;28;20048;-85
2021/10/03 07:54:36;;;;;;;8.77;6.72;;;;;;;16.10;100.00;99136.19;4934958;28;20074;-85
2021/10/03 07:57:01;;;;;;;10.77;7.22;;;;;;;16.09;100.00;99137.25;4947816;28;20051;-85
2021/10/03 07:59:26;;;;;;;13.50;8.30;;;;;;;16.10;100.00;99129.94;4953047;28;20054;-86
2021/10/03 08:01:52;;;;;;;14.40;8.10;;;;;;;16.11;100.00;99135.13;4951241;28;20051;-85
2021/10/03 08:04:17;;;;;;;12.80;7.65;;;;;;;16.11;100.00;99131.59;4950157;28;20101;-85
2021/10/03 08:06:42;;;;;;;11.85;8.10;;;;;;;16.11;100.00;99118.91;4923028;29;20074;-85
2021/10/03 08:09:08;;;;;;;11.68;7.82;;;;;;;16.11;100.00;99143.25;4928913;28;20519;-85
2021/10/03 08:11:33;;;;;;;16.70;8.52;;;;;;;16.11;100.00;99131.59;4933834;28;20043;-85
2021/10/03 08:13:59;;;;;;;15.15;8.85;;;;;;;16.10;100.00;99135.38;4944817;28;20154;-85
2021/10/03 08:16:24;;;;;;;14.35;7.97;;;;;;;16.09;100.00;99131.03;4936835;28;20533;-85
2021/10/03 08:18:50;;;;;;;11.30;8.32;;;;;;;16.09;100.00;99134.53;4934747;28;20039;-85
2021/10/03 08:21:17;;;;;;;13.63;8.13;;;;;;;16.09;100.00;99131.03;4924229;28;20048;-87
2021/10/03 08:23:43;;;;;;;12.00;8.43;;;;;;;16.10;100.00;99132.66;4931335;28;20162;-85
2021/10/03 08:26:09;;;;;;;13.25;8.95;;;;;;;16.09;100.00;99133.72;4952163;28;20043;-86
2021/10/03 08:28:34;;;;;;;13.35;8.35;;;;;;;16.10;100.00;99141.59;4945545;28;20043;-85
2021/10/03 08:31:00;;;;;;;13.70;8.88;;;;;;;16.09;100.00;99139.97;4949893;28;20413;-86
2021/10/03 08:33:25;;;;;;;12.82;8.70;;;;;;;16.11;100.00;99158.66;4946067;28;20047;-87
2021/10/03 08:35:51;;;;;;;12.25;8.65;;;;;;;16.10;100.00;99147.00;4940560;28;20281;-85
2021/10/03 08:38:16;;;;;;;11.48;8.90;;;;;;;16.12;100.00;99144.06;4955464;28;20074;-85
2021/10/03 08:40:42;;;;;;;13.73;8.38;;;;;;;16.10;100.00;99149.72;4960698;28;20047;-85
2021/10/03 08:43:08;;;;;;;13.40;8.60;;;;;;;16.13;100.00;99141.09;4960403;28;20058;-84
2021/10/03 08:45:43;;;;;;;12.18;8.32;;;;;;;16.13;100.00;99157.34;4958371;28;20055;-86
2021/10/03 08:48:13;;;;;;;10.65;8.40;;;;;;;16.12;100.00;99152.19;4962580;28;20054;-85
2021/10/03 08:50:40;;;;;;;12.10;7.90;;;;;;;16.10;100.00;99159.72;4946250;28;20122;-85
2021/10/03 08:53:06;;;;;;;14.73;8.43;;;;;;;16.12;100.00;99157.59;4929115;29;20462;-85
2021/10/03 08:55:31;;;;;;;11.15;8.38;;;;;;;16.12;100.00;99154.91;4935235;28;20050;-85
2021/10/03 08:57:57;;;;;;;12.43;9.63;;;;;;;16.14;100.00;99156.31;4950158;28;20146;-85
2021/10/03 09:00:24;;;;;;;11.00;7.97;;;;;;;16.14;100.00;99164.41;4948683;28;20434;-85
2021/10/03 09:03:04;;;;;;;13.75;9.50;;;;;;;16.16;100.00;99158.75;4942686;28;20058;-85
2021/10/03 09:05:32;;;;;;;12.52;8.43;;;;;;;16.15;100.00;99165.22;4939973;28;20132;-85
2021/10/03 09:07:58;;;;;;;11.57;8.30;;;;;;;16.13;100.00;99161.94;4943944;28;20264;-85
2021/10/03 09:10:24;;;;;;;12.68;8.95;;;;;;;16.13;100.00;99167.34;4949198;28;20410;-85
2021/10/03 09:12:49;;;;;;;12.20;8.73;;;;;;;16.14;100.00;99168.97;4953731;28;20401;-85
2021/10/03 09:15:19;;;;;;;12.40;9.02;;;;;;;16.13;100.00;99175.47;4949253;28;20446;-88
2021/10/03 09:17:55;;;;;;;12.20;8.23;;;;;;;16.11;100.00;99164.91;4951379;28;20047;-85
2021/10/03 09:20:24;;;;;;;14.13;9.18;;;;;;;16.11;100.00;99167.59;4950425;28;20074;-86
2021/10/03 09:23:11;;;;;;;14.48;9.32;;;;;;;16.07;100.00;99158.31;4948679;28;20082;-85
2021/10/03 09:25:52;;;;;;;14.10;8.52;;;;;;;16.09;100.00;99148.06;4939052;28;20302;-85
2021/10/03 09:28:22;;;;;;;12.27;8.45;;;;;;;16.11;100.00;99154.06;4936600;28;20040;-86
2021/10/03 09:31:07;;;;;;;14.75;9.38;;;;;;;16.13;100.00;99157.34;4936249;28;20059;-87
2021/10/03 09:33:55;;;;;;;12.32;9.00;;;;;;;16.14;100.00;99156.31;4944351;28;20082;-84
2021/10/03 09:36:34;;;;;;;13.32;9.48;;;;;;;16.15;100.00;99149.00;4937454;28;20125;-85
2021/10/03 09:39:08;;;;;;;13.18;9.18;;;;;;;16.16;100.00;99162.28;4928589;29;20847;-85
2021/10/03 09:41:35;;;;;;;15.10;10.10;;;;;;;16.17;100.00;99150.41;4930020;29;20051;-85
2021/10/03 09:44:08;;;;;;;12.85;9.60;;;;;;;16.19;100.00;99144.75;4935276;28;20051;-85
2021/10/03 09:46:49;;;;;;;12.95;9.60;;;;;;;16.19;100.00;99152.84;4932384;28;20124;-85
2021/10/03 09:49:17;;;;;;;16.83;9.35;;;;;;;16.21;100.00;99148.03;4929515;28;20048;-84
2021/10/03 09:51:47;;;;;;;14.10;9.63;;;;;;;16.22;100.00;99149.66;4937433;28;20410;-85
2021/10/03 09:54:15;;;;;;;14.73;8.63;;;;;;;16.24;100.00;99142.13;4942713;28;20335;-84
2021/10/03 09:56:40;;;;;;;11.23;8.18;;;;;;;16.27;100.00;99151.66;4935527;28;20060;-85
2021/10/03 09:59:07;;;;;;;11.70;8.98;;;;;;;16.29;100.00;99150.38;4932205;28;20118;-85
2021/10/03 10:01:44;;;;;;;10.98;7.97;;;;;;;16.33;100.00;99153.41;4938256;28;20371;-85
2021/10/03 10:04:15;;;;;;;13.43;8.65;;;;;;;16.37;100.00;99151.84;4932423;28;20741;-86
2021/10/03 10:06:44;;;;;;;13.38;8.48;;;;;;;16.39;100.00;99149.72;4944079;28;20065;-86
2021/10/03 10:09:16;;;;;;;12.57;8.13;;;;;;;16.42;100.00;99162.78;4950278;28;20656;-85
2021/10/03 10:12:11;;;;;;;12.55;8.23;;;;;;;16.42;100.00;99160.88;4962212;28;20054;-86
2021/10/03 10:14:39;;;;;;;11.50;8.68;;;;;;;16.41;100.00;99161.94;4950855;28;20043;-85
2021/10/03 10:17:31;;;;;;;12.50;8.20;;;;;;;16.43;100.00;99175.25;4950591;28;20048;-85
2021/10/03 10:19:58;;;;;;;10.65;8.38;;;;;;;16.43;100.00;99167.97;4917504;28;20130;-85
2021/10/03 10:22:33;;;;;;;12.88;8.52;;;;;;;16.43;100.00;99178.78;4943545;28;20062;-84
2021/10/03 10:25:02;;;;;;;11.93;8.10;;;;;;;16.44;100.00;99169.59;4953218;28;20397;-84
2021/10/03 10:27:30;;;;;;;9.93;7.57;;;;;;;16.44;100.00;99169.59;4953527;28;20254;-84
2021/10/03 10:30:06;;;;;;;12.00;7.93;;;;;;;16.42;100.00;99154.66;4953554;28;20360;-84
2021/10/03 10:32:34;;;;;;;11.15;7.72;;;;;;;16.44;100.00;99160.66;4942565;28;21504;-85
2021/10/03 10:35:09;;;;;;;9.97;7.73;;;;;;;16.44;100.00;99164.19;4929584;28;20130;-85
2021/10/03 10:37:49;;;;;;;11.57;7.78;;;;;;;16.46;100.00;99159.34;4935500;28;20414;-86
2021/10/03 10:40:21;;;;;;;11.52;7.88;;;;;;;16.48;100.00;99164.50;4942522;28;20047;-86
2021/10/03 10:43:06;;;;;;;12.45;8.27;;;;;;;16.51;100.00;99152.38;4957675;28;20324;-85
2021/10/03 10:45:35;;;;;;;11.45;7.78;;;;;;;16.53;100.00;99151.06;4961932;28;20039;-85
2021/10/03 10:48:07;;;;;;;11.45;7.25;;;;;;;16.56;100.00;99161.41;4944314;28;20055;-84
2021/10/03 10:50:39;;;;;;;12.32;7.65;;;;;;;16.60;100.00;99167.16;4921451;28;20036;-85
2021/10/03 10:53:39;;;;;;;10.80;8.00;;;;;;;16.63;100.00;99158.53;4932011;28;21107;-85
2021/10/03 10:56:08;;;;;;;10.10;6.78;;;;;;;16.65;100.00;99159.13;4918244;29;20634;-84
2021/10/03 10:58:36;;;;;;;10.60;7.78;;;;;;;16.67;100.00;99167.84;4934727;28;20054;-86
2021/10/03 11:01:13;;;;;;;12.27;7.82;;;;;;;16.70;100.00;99161.94;4928632;28;20139;-85
2021/10/03 11:03:41;;;;;;;10.38;7.25;;;;;;;16.74;100.00;99173.09;4943322;28;20106;-86
2021/10/03 11:06:11;;;;;;;10.30;6.53;;;;;;;16.77;100.00;99167.22;4943459;28;20075;-85
2021/10/03 11:08:58;;;;;;;10.60;6.85;;;;;;;16.80;100.00;99182.97;4931918;28;20097;-85
2021/10/03 11:11:35;;;;;;;11.35;6.63;;;;;;;16.83;100.00;99194.19;4934078;28;20076;-84
2021/10/03 11:14:17;;;;;;;12.02;8.13;;;;;;;16.86;100.00;99199.09;4918485;29;20411;-84
2021/10/03 11:16:48;;;;;;;9.70;6.75;;;;;;;16.86;100.00;99192.84;4916550;28;20465;-86
2021/10/03 11:19:15;;;;;;;10.20;7.13;;;;;;;16.86;100.00;99199.09;4945201;28;20052;-87
2021/10/03 11:21:42;;;;;;;10.38;7.47;;;;;;;16.88;100.00;99205.06;4945543;28;20047;-85
2021/10/03 11:24:11;;;;;;;10.98;7.68;;;;;;;16.87;100.00;99205.34;4934343;28;20047;-85
2021/10/03 11:26:49;;;;;;;10.68;7.82;;;;;;;16.88;100.00;99220.50;4930590;28;20073;-86